sensor_id;sensor_type;location;lat;lon;timestamp;P1;durP1;ratioP1;P2;durP2;ratioP2
38811;SDS011;24553;51.640;-0.752;2023-05-10T00:00:29;4.65;;;0.43;;
38811;SDS011;24553;51.640;-0.752;2023-05-10T00:02:55;0.52;;;0.20;;
38811;SDS011;24553;51.640;-0.752;2023-05-10T00:05:20;0.10;;;0.03;;
38811;SDS011;24553;51.640;-0.752;2023-05-10T00:07:45;2.00;;;0.20;;
38811;SDS011;24553;51.640;-0.752;2023-05-10T00:10:11;0.75;;;0.10;;
38811;SDS011;24553;51.640;-0.752;2023-05-10T00:12:36;0.25;;;0.00;;
38811;SDS011;24553;51.640;-0.752;2023-05-10T00:15:02;0.38;;;0.00;;
38811;SDS011;24553;51.640;-0.752;2023-05-10T00:17:28;0.73;;;0.60;;
38811;SDS011;24553;51.640;-0.752;2023-05-10T00:19:53;3.00;;;0.35;;
38811;SDS011;24553;51.640;-0.752;2023-05-10T00:22:19;0.88;;;0.38;;
38811;SDS011;24553;51.640;-0.752;2023-05-10T00:24:44;1.45;;;0.22;;
38811;SDS011;24553;51.640;-0.752;2023-05-10T00:27:10;1.98;;;0.75;;
38811;SDS011;24553;51.640;-0.752;2023-05-10T00:29:35;1.95;;;0.93;;
38811;SDS011;24553;51.640;-0.752;2023-05-10T00:32:00;0.90;;;0.40;;
38811;SDS011;24553;51.640;-0.752;2023-05-10T00:34:25;18.48;;;1.05;;
38811;SDS011;24553;51.640;-0.752;2023-05-10T00:36:52;3.45;;;0.17;;
38811;SDS011;24553;51.640;-0.752;2023-05-10T00:39:17;0.90;;;0.30;;
38811;SDS011;24553;51.640;-0.752;2023-05-10T00:41:42;1.30;;;0.10;;
38811;SDS011;24553;51.640;-0.752;2023-05-10T00:44:08;3.47;;;1.35;;
38811;SDS011;24553;51.640;-0.752;2023-05-10T00:46:33;1.38;;;0.30;;
38811;SDS011;24553;51.640;-0.752;2023-05-10T00:48:58;1.65;;;0.50;;
38811;SDS011;24553;51.640;-0.752;2023-05-10T00:51:24;1.58;;;0.20;;
38811;SDS011;24553;51.640;-0.752;2023-05-10T00:53:49;0.43;;;0.20;;
38811;SDS011;24553;51.640;-0.752;2023-05-10T00:56:16;0.17;;;0.13;;
38811;SDS011;24553;51.640;-0.752;2023-05-10T00:58:41;1.83;;;1.67;;
38811;SDS011;24553;51.640;-0.752;2023-05-10T01:01:07;1.40;;;0.85;;
38811;SDS011;24553;51.640;-0.752;2023-05-10T01:03:34;2.60;;;0.40;;
38811;SDS011;24553;51.640;-0.752;2023-05-10T01:06:00;5.05;;;1.85;;
38811;SDS011;24553;51.640;-0.752;2023-05-10T01:08:26;4.68;;;1.02;;
38811;SDS011;24553;51.640;-0.752;2023-05-10T01:10:54;1.10;;;0.50;;
38811;SDS011;24553;51.640;-0.752;2023-05-10T01:13:38;0.75;;;0.70;;
38811;SDS011;24553;51.640;-0.752;2023-05-10T01:16:07;0.65;;;0.50;;
38811;SDS011;24553;51.640;-0.752;2023-05-10T01:18:33;1.30;;;0.22;;
38811;SDS011;24553;51.640;-0.752;2023-05-10T01:24:04;0.17;;;0.10;;
38811;SDS011;24553;51.640;-0.752;2023-05-10T01:32:21;0.57;;;0.20;;
38811;SDS011;24553;51.640;-0.752;2023-05-10T01:37:41;1.40;;;0.50;;
38811;SDS011;24553;51.640;-0.752;2023-05-10T01:42:46;3.10;;;0.82;;
38811;SDS011;24553;51.640;-0.752;2023-05-10T01:48:07;2.55;;;0.60;;
38811;SDS011;24553;51.640;-0.752;2023-05-10T01:50:36;1.05;;;0.70;;
38811;SDS011;24553;51.640;-0.752;2023-05-10T01:53:03;1.85;;;0.30;;
38811;SDS011;24553;51.640;-0.752;2023-05-10T01:55:33;1.45;;;0.90;;
38811;SDS011;24553;51.640;-0.752;2023-05-10T01:58:15;0.77;;;0.77;;
38811;SDS011;24553;51.640;-0.752;2023-05-10T02:00:49;0.98;;;0.30;;
38811;SDS011;24553;51.640;-0.752;2023-05-10T02:03:16;5.15;;;1.25;;
38811;SDS011;24553;51.640;-0.752;2023-05-10T02:05:46;1.88;;;0.65;;
38811;SDS011;24553;51.640;-0.752;2023-05-10T02:08:13;0.77;;;0.43;;
38811;SDS011;24553;51.640;-0.752;2023-05-10T02:10:42;0.65;;;0.65;;
38811;SDS011;24553;51.640;-0.752;2023-05-10T02:13:09;1.75;;;0.73;;
38811;SDS011;24553;51.640;-0.752;2023-05-10T02:15:36;4.35;;;0.55;;
38811;SDS011;24553;51.640;-0.752;2023-05-10T02:18:03;2.35;;;0.68;;
38811;SDS011;24553;51.640;-0.752;2023-05-10T02:20:30;0.45;;;0.20;;
38811;SDS011;24553;51.640;-0.752;2023-05-10T02:22:57;2.05;;;0.52;;
38811;SDS011;24553;51.640;-0.752;2023-05-10T02:25:23;1.38;;;1.13;;
38811;SDS011;24553;51.640;-0.752;2023-05-10T02:27:50;2.65;;;0.77;;
38811;SDS011;24553;51.640;-0.752;2023-05-10T02:30:17;2.22;;;0.50;;
38811;SDS011;24553;51.640;-0.752;2023-05-10T02:32:44;0.10;;;0.10;;
38811;SDS011;24553;51.640;-0.752;2023-05-10T02:35:10;0.65;;;0.10;;
38811;SDS011;24553;51.640;-0.752;2023-05-10T02:37:39;2.47;;;1.63;;
38811;SDS011;24553;51.640;-0.752;2023-05-10T02:40:05;1.15;;;0.75;;
38811;SDS011;24553;51.640;-0.752;2023-05-10T02:42:32;1.77;;;0.80;;
38811;SDS011;24553;51.640;-0.752;2023-05-10T02:45:02;2.45;;;0.45;;
38811;SDS011;24553;51.640;-0.752;2023-05-10T02:47:32;0.55;;;0.55;;
38811;SDS011;24553;51.640;-0.752;2023-05-10T02:49:58;0.70;;;0.70;;
38811;SDS011;24553;51.640;-0.752;2023-05-10T02:52:28;2.05;;;0.60;;
38811;SDS011;24553;51.640;-0.752;2023-05-10T02:55:02;3.47;;;0.28;;
38811;SDS011;24553;51.640;-0.752;2023-05-10T02:57:32;3.80;;;0.50;;
38811;SDS011;24553;51.640;-0.752;2023-05-10T02:59:59;1.15;;;0.50;;
38811;SDS011;24553;51.640;-0.752;2023-05-10T03:02:25;0.82;;;0.50;;
38811;SDS011;24553;51.640;-0.752;2023-05-10T03:04:51;2.85;;;0.20;;
38811;SDS011;24553;51.640;-0.752;2023-05-10T03:07:16;0.20;;;0.20;;
38811;SDS011;24553;51.640;-0.752;2023-05-10T03:09:44;1.63;;;0.65;;
38811;SDS011;24553;51.640;-0.752;2023-05-10T03:15:22;0.88;;;0.43;;
38811;SDS011;24553;51.640;-0.752;2023-05-10T03:18:00;0.17;;;0.10;;
38811;SDS011;24553;51.640;-0.752;2023-05-10T03:20:29;0.40;;;0.40;;
38811;SDS011;24553;51.640;-0.752;2023-05-10T03:23:02;1.40;;;0.50;;
38811;SDS011;24553;51.640;-0.752;2023-05-10T03:25:32;0.40;;;0.10;;
38811;SDS011;24553;51.640;-0.752;2023-05-10T03:27:58;0.30;;;0.17;;
38811;SDS011;24553;51.640;-0.752;2023-05-10T03:30:26;0.88;;;0.17;;
38811;SDS011;24553;51.640;-0.752;2023-05-10T03:32:53;1.15;;;0.40;;
38811;SDS011;24553;51.640;-0.752;2023-05-10T03:35:19;0.17;;;0.10;;
38811;SDS011;24553;51.640;-0.752;2023-05-10T03:37:44;2.17;;;0.28;;
38811;SDS011;24553;51.640;-0.752;2023-05-10T03:40:10;1.27;;;0.30;;
38811;SDS011;24553;51.640;-0.752;2023-05-10T03:42:35;0.25;;;0.22;;
38811;SDS011;24553;51.640;-0.752;2023-05-10T03:45:01;0.95;;;0.10;;
38811;SDS011;24553;51.640;-0.752;2023-05-10T03:47:27;0.10;;;0.10;;
38811;SDS011;24553;51.640;-0.752;2023-05-10T03:49:52;9.20;;;1.05;;
38811;SDS011;24553;51.640;-0.752;2023-05-10T03:52:17;1.00;;;0.22;;
38811;SDS011;24553;51.640;-0.752;2023-05-10T03:54:43;0.43;;;0.20;;
38811;SDS011;24553;51.640;-0.752;2023-05-10T03:57:08;2.85;;;0.32;;
38811;SDS011;24553;51.640;-0.752;2023-05-10T03:59:34;0.52;;;0.20;;
38811;SDS011;24553;51.640;-0.752;2023-05-10T04:02:00;0.85;;;0.22;;
38811;SDS011;24553;51.640;-0.752;2023-05-10T04:04:25;0.52;;;0.20;;
38811;SDS011;24553;51.640;-0.752;2023-05-10T04:06:50;1.75;;;0.30;;
38811;SDS011;24553;51.640;-0.752;2023-05-10T04:09:15;0.50;;;0.20;;
38811;SDS011;24553;51.640;-0.752;2023-05-10T04:11:42;4.90;;;0.35;;
38811;SDS011;24553;51.640;-0.752;2023-05-10T04:14:07;1.05;;;0.50;;
38811;SDS011;24553;51.640;-0.752;2023-05-10T04:16:32;1.33;;;0.70;;
38811;SDS011;24553;51.640;-0.752;2023-05-10T04:18:58;1.33;;;0.38;;
38811;SDS011;24553;51.640;-0.752;2023-05-10T04:21:24;3.92;;;1.08;;
38811;SDS011;24553;51.640;-0.752;2023-05-10T04:23:50;3.25;;;1.33;;
38811;SDS011;24553;51.640;-0.752;2023-05-10T04:26:15;1.52;;;1.23;;
38811;SDS011;24553;51.640;-0.752;2023-05-10T04:28:40;4.13;;;1.75;;
38811;SDS011;24553;51.640;-0.752;2023-05-10T04:31:06;3.85;;;1.73;;
38811;SDS011;24553;51.640;-0.752;2023-05-10T04:33:33;5.28;;;1.65;;
38811;SDS011;24553;51.640;-0.752;2023-05-10T04:35:59;2.55;;;1.70;;
38811;SDS011;24553;51.640;-0.752;2023-05-10T04:38:25;11.85;;;2.20;;
38811;SDS011;24553;51.640;-0.752;2023-05-10T04:40:51;3.35;;;2.05;;
38811;SDS011;24553;51.640;-0.752;2023-05-10T04:43:17;4.75;;;2.08;;
38811;SDS011;24553;51.640;-0.752;2023-05-10T04:45:42;5.20;;;1.98;;
38811;SDS011;24553;51.640;-0.752;2023-05-10T04:48:07;3.70;;;2.00;;
38811;SDS011;24553;51.640;-0.752;2023-05-10T04:50:33;4.40;;;1.30;;
38811;SDS011;24553;51.640;-0.752;2023-05-10T04:52:58;3.15;;;2.45;;
38811;SDS011;24553;51.640;-0.752;2023-05-10T04:55:24;3.03;;;1.05;;
38811;SDS011;24553;51.640;-0.752;2023-05-10T04:57:49;3.40;;;2.00;;
38811;SDS011;24553;51.640;-0.752;2023-05-10T05:00:14;5.68;;;1.48;;
38811;SDS011;24553;51.640;-0.752;2023-05-10T05:02:43;5.65;;;1.85;;
38811;SDS011;24553;51.640;-0.752;2023-05-10T05:05:10;5.00;;;2.58;;
38811;SDS011;24553;51.640;-0.752;2023-05-10T05:07:36;4.30;;;1.00;;
38811;SDS011;24553;51.640;-0.752;2023-05-10T05:10:02;4.50;;;1.20;;
38811;SDS011;24553;51.640;-0.752;2023-05-10T05:12:28;6.43;;;1.38;;
38811;SDS011;24553;51.640;-0.752;2023-05-10T05:14:53;5.57;;;0.80;;
38811;SDS011;24553;51.640;-0.752;2023-05-10T05:17:18;1.80;;;0.70;;
38811;SDS011;24553;51.640;-0.752;2023-05-10T05:19:44;1.35;;;0.55;;
38811;SDS011;24553;51.640;-0.752;2023-05-10T05:22:09;2.33;;;0.43;;
38811;SDS011;24553;51.640;-0.752;2023-05-10T05:24:35;5.65;;;1.77;;
38811;SDS011;24553;51.640;-0.752;2023-05-10T05:27:02;3.83;;;0.77;;
38811;SDS011;24553;51.640;-0.752;2023-05-10T05:29:27;9.55;;;1.30;;
38811;SDS011;24553;51.640;-0.752;2023-05-10T05:31:53;5.03;;;0.98;;
38811;SDS011;24553;51.640;-0.752;2023-05-10T05:34:18;2.85;;;0.73;;
38811;SDS011;24553;51.640;-0.752;2023-05-10T05:36:45;8.82;;;2.97;;
38811;SDS011;24553;51.640;-0.752;2023-05-10T05:39:10;2.33;;;1.10;;
38811;SDS011;24553;51.640;-0.752;2023-05-10T05:41:36;2.83;;;1.02;;
38811;SDS011;24553;51.640;-0.752;2023-05-10T05:44:01;3.17;;;2.08;;
38811;SDS011;24553;51.640;-0.752;2023-05-10T05:46:26;5.78;;;1.95;;
38811;SDS011;24553;51.640;-0.752;2023-05-10T05:48:52;4.45;;;1.00;;
38811;SDS011;24553;51.640;-0.752;2023-05-10T05:51:17;2.05;;;1.77;;
38811;SDS011;24553;51.640;-0.752;2023-05-10T05:53:42;1.40;;;1.25;;
38811;SDS011;24553;51.640;-0.752;2023-05-10T05:56:08;1.00;;;0.88;;
38811;SDS011;24553;51.640;-0.752;2023-05-10T05:58:34;3.55;;;1.00;;
38811;SDS011;24553;51.640;-0.752;2023-05-10T06:00:59;3.10;;;0.60;;
38811;SDS011;24553;51.640;-0.752;2023-05-10T06:03:25;1.27;;;0.55;;
38811;SDS011;24553;51.640;-0.752;2023-05-10T06:05:50;1.90;;;0.60;;
38811;SDS011;24553;51.640;-0.752;2023-05-10T06:08:15;5.53;;;1.83;;
38811;SDS011;24553;51.640;-0.752;2023-05-10T06:10:41;2.97;;;1.42;;
38811;SDS011;24553;51.640;-0.752;2023-05-10T06:13:06;1.85;;;1.30;;
38811;SDS011;24553;51.640;-0.752;2023-05-10T06:15:31;5.88;;;1.90;;
38811;SDS011;24553;51.640;-0.752;2023-05-10T06:17:57;5.22;;;1.10;;
38811;SDS011;24553;51.640;-0.752;2023-05-10T06:20:23;3.35;;;1.00;;
38811;SDS011;24553;51.640;-0.752;2023-05-10T06:22:48;2.75;;;1.25;;
38811;SDS011;24553;51.640;-0.752;2023-05-10T06:25:13;8.57;;;1.40;;
38811;SDS011;24553;51.640;-0.752;2023-05-10T06:27:39;3.55;;;1.15;;
38811;SDS011;24553;51.640;-0.752;2023-05-10T06:30:05;8.38;;;1.50;;
38811;SDS011;24553;51.640;-0.752;2023-05-10T06:32:31;2.15;;;1.08;;
38811;SDS011;24553;51.640;-0.752;2023-05-10T06:34:56;2.47;;;1.55;;
38811;SDS011;24553;51.640;-0.752;2023-05-10T06:37:21;2.45;;;1.38;;
38811;SDS011;24553;51.640;-0.752;2023-05-10T06:39:47;3.13;;;1.48;;
38811;SDS011;24553;51.640;-0.752;2023-05-10T06:42:12;2.70;;;1.17;;
38811;SDS011;24553;51.640;-0.752;2023-05-10T06:44:37;6.40;;;1.52;;
38811;SDS011;24553;51.640;-0.752;2023-05-10T06:47:03;2.38;;;1.80;;
38811;SDS011;24553;51.640;-0.752;2023-05-10T06:49:28;3.90;;;1.90;;
38811;SDS011;24553;51.640;-0.752;2023-05-10T06:51:54;4.85;;;2.08;;
38811;SDS011;24553;51.640;-0.752;2023-05-10T06:54:20;4.93;;;2.45;;
38811;SDS011;24553;51.640;-0.752;2023-05-10T06:56:45;4.55;;;2.45;;
38811;SDS011;24553;51.640;-0.752;2023-05-10T06:59:11;3.83;;;1.67;;
38811;SDS011;24553;51.640;-0.752;2023-05-10T07:01:38;4.30;;;2.13;;
38811;SDS011;24553;51.640;-0.752;2023-05-10T07:04:03;5.20;;;2.63;;
38811;SDS011;24553;51.640;-0.752;2023-05-10T07:06:29;8.07;;;2.55;;
38811;SDS011;24553;51.640;-0.752;2023-05-10T07:08:54;6.13;;;2.63;;
38811;SDS011;24553;51.640;-0.752;2023-05-10T07:11:20;5.55;;;2.63;;
38811;SDS011;24553;51.640;-0.752;2023-05-10T07:13:45;6.00;;;1.92;;
38811;SDS011;24553;51.640;-0.752;2023-05-10T07:16:11;4.65;;;2.22;;
38811;SDS011;24553;51.640;-0.752;2023-05-10T07:18:36;2.58;;;2.25;;
38811;SDS011;24553;51.640;-0.752;2023-05-10T07:21:02;5.88;;;3.00;;
38811;SDS011;24553;51.640;-0.752;2023-05-10T07:23:28;4.63;;;2.17;;
38811;SDS011;24553;51.640;-0.752;2023-05-10T07:25:53;7.25;;;2.83;;
38811;SDS011;24553;51.640;-0.752;2023-05-10T07:28:19;6.03;;;2.88;;
38811;SDS011;24553;51.640;-0.752;2023-05-10T07:30:45;4.63;;;1.77;;
38811;SDS011;24553;51.640;-0.752;2023-05-10T07:33:13;5.93;;;2.47;;
38811;SDS011;24553;51.640;-0.752;2023-05-10T07:35:39;7.30;;;2.70;;
38811;SDS011;24553;51.640;-0.752;2023-05-10T07:38:04;7.47;;;3.63;;
38811;SDS011;24553;51.640;-0.752;2023-05-10T07:40:30;9.43;;;3.65;;
38811;SDS011;24553;51.640;-0.752;2023-05-10T07:42:56;13.50;;;4.22;;
38811;SDS011;24553;51.640;-0.752;2023-05-10T07:45:21;13.65;;;3.38;;
38811;SDS011;24553;51.640;-0.752;2023-05-10T07:47:47;11.10;;;4.55;;
38811;SDS011;24553;51.640;-0.752;2023-05-10T07:50:12;10.88;;;3.50;;
38811;SDS011;24553;51.640;-0.752;2023-05-10T07:52:38;6.95;;;4.15;;
38811;SDS011;24553;51.640;-0.752;2023-05-10T07:55:03;11.15;;;4.18;;
38811;SDS011;24553;51.640;-0.752;2023-05-10T07:57:29;5.13;;;3.00;;
38811;SDS011;24553;51.640;-0.752;2023-05-10T07:59:55;6.32;;;4.00;;
38811;SDS011;24553;51.640;-0.752;2023-05-10T08:02:21;10.25;;;4.60;;
38811;SDS011;24553;51.640;-0.752;2023-05-10T08:04:46;10.32;;;5.63;;
38811;SDS011;24553;51.640;-0.752;2023-05-10T08:07:11;8.38;;;4.78;;
38811;SDS011;24553;51.640;-0.752;2023-05-10T08:09:36;10.00;;;4.80;;
38811;SDS011;24553;51.640;-0.752;2023-05-10T08:12:02;7.97;;;4.70;;
38811;SDS011;24553;51.640;-0.752;2023-05-10T08:14:28;8.82;;;4.93;;
38811;SDS011;24553;51.640;-0.752;2023-05-10T08:16:54;10.02;;;4.07;;
38811;SDS011;24553;51.640;-0.752;2023-05-10T08:19:19;14.63;;;3.60;;
38811;SDS011;24553;51.640;-0.752;2023-05-10T08:21:46;4.88;;;3.67;;
38811;SDS011;24553;51.640;-0.752;2023-05-10T08:24:11;10.05;;;5.00;;
38811;SDS011;24553;51.640;-0.752;2023-05-10T08:26:37;5.72;;;3.53;;
38811;SDS011;24553;51.640;-0.752;2023-05-10T08:29:02;6.20;;;4.20;;
38811;SDS011;24553;51.640;-0.752;2023-05-10T08:31:27;4.93;;;3.35;;
38811;SDS011;24553;51.640;-0.752;2023-05-10T08:33:53;9.30;;;4.18;;
38811;SDS011;24553;51.640;-0.752;2023-05-10T08:36:18;5.90;;;3.25;;
38811;SDS011;24553;51.640;-0.752;2023-05-10T08:38:46;5.40;;;4.35;;
38811;SDS011;24553;51.640;-0.752;2023-05-10T08:41:12;6.28;;;3.25;;
38811;SDS011;24553;51.640;-0.752;2023-05-10T08:43:38;4.43;;;3.72;;
38811;SDS011;24553;51.640;-0.752;2023-05-10T08:46:04;7.28;;;4.05;;
38811;SDS011;24553;51.640;-0.752;2023-05-10T08:48:30;5.50;;;3.03;;
38811;SDS011;24553;51.640;-0.752;2023-05-10T08:50:58;8.50;;;3.40;;
38811;SDS011;24553;51.640;-0.752;2023-05-10T08:53:26;6.63;;;2.47;;
38811;SDS011;24553;51.640;-0.752;2023-05-10T08:55:53;6.10;;;3.17;;
38811;SDS011;24553;51.640;-0.752;2023-05-10T08:58:19;3.53;;;1.73;;
38811;SDS011;24553;51.640;-0.752;2023-05-10T09:00:45;4.80;;;2.53;;
38811;SDS011;24553;51.640;-0.752;2023-05-10T09:03:11;4.63;;;2.45;;
38811;SDS011;24553;51.640;-0.752;2023-05-10T09:05:37;5.78;;;3.10;;
38811;SDS011;24553;51.640;-0.752;2023-05-10T09:08:03;3.38;;;2.38;;
38811;SDS011;24553;51.640;-0.752;2023-05-10T09:10:29;4.65;;;2.75;;
38811;SDS011;24553;51.640;-0.752;2023-05-10T09:12:56;7.82;;;2.22;;
38811;SDS011;24553;51.640;-0.752;2023-05-10T09:15:22;3.30;;;1.90;;
38811;SDS011;24553;51.640;-0.752;2023-05-10T09:17:47;6.93;;;3.78;;
38811;SDS011;24553;51.640;-0.752;2023-05-10T09:20:14;8.25;;;1.83;;
38811;SDS011;24553;51.640;-0.752;2023-05-10T09:22:40;7.10;;;3.08;;
38811;SDS011;24553;51.640;-0.752;2023-05-10T09:27:36;3.72;;;1.67;;
38811;SDS011;24553;51.640;-0.752;2023-05-10T09:30:02;6.95;;;1.88;;
38811;SDS011;24553;51.640;-0.752;2023-05-10T09:32:41;2.55;;;1.75;;
38811;SDS011;24553;51.640;-0.752;2023-05-10T09:35:08;6.05;;;2.28;;
38811;SDS011;24553;51.640;-0.752;2023-05-10T09:37:34;4.70;;;2.10;;
38811;SDS011;24553;51.640;-0.752;2023-05-10T09:39:59;5.22;;;1.25;;
38811;SDS011;24553;51.640;-0.752;2023-05-10T09:42:24;4.88;;;1.35;;
38811;SDS011;24553;51.640;-0.752;2023-05-10T09:44:50;5.05;;;1.83;;
38811;SDS011;24553;51.640;-0.752;2023-05-10T09:47:18;2.67;;;1.40;;
38811;SDS011;24553;51.640;-0.752;2023-05-10T09:49:44;2.65;;;0.65;;
38811;SDS011;24553;51.640;-0.752;2023-05-10T09:52:14;14.07;;;3.53;;
38811;SDS011;24553;51.640;-0.752;2023-05-10T09:54:42;8.77;;;1.27;;
38811;SDS011;24553;51.640;-0.752;2023-05-10T09:57:21;2.38;;;1.27;;
38811;SDS011;24553;51.640;-0.752;2023-05-10T09:59:47;9.65;;;2.33;;
38811;SDS011;24553;51.640;-0.752;2023-05-10T10:02:13;2.65;;;1.48;;
38811;SDS011;24553;51.640;-0.752;2023-05-10T10:04:39;4.88;;;1.17;;
38811;SDS011;24553;51.640;-0.752;2023-05-10T10:07:05;9.40;;;1.90;;
38811;SDS011;24553;51.640;-0.752;2023-05-10T10:09:32;3.63;;;1.20;;
38811;SDS011;24553;51.640;-0.752;2023-05-10T10:11:59;5.13;;;0.68;;
38811;SDS011;24553;51.640;-0.752;2023-05-10T10:14:25;6.80;;;1.10;;
38811;SDS011;24553;51.640;-0.752;2023-05-10T10:16:51;2.03;;;1.92;;
38811;SDS011;24553;51.640;-0.752;2023-05-10T10:19:20;12.07;;;1.73;;
38811;SDS011;24553;51.640;-0.752;2023-05-10T10:21:47;4.25;;;0.77;;
38811;SDS011;24553;51.640;-0.752;2023-05-10T10:24:15;2.50;;;0.63;;
38811;SDS011;24553;51.640;-0.752;2023-05-10T10:26:40;2.72;;;0.65;;
38811;SDS011;24553;51.640;-0.752;2023-05-10T10:32:09;3.65;;;0.63;;
38811;SDS011;24553;51.640;-0.752;2023-05-10T10:34:43;5.63;;;0.60;;
38811;SDS011;24553;51.640;-0.752;2023-05-10T10:37:09;6.15;;;1.20;;
38811;SDS011;24553;51.640;-0.752;2023-05-10T10:39:35;2.38;;;0.57;;
38811;SDS011;24553;51.640;-0.752;2023-05-10T10:42:01;5.35;;;0.45;;
38811;SDS011;24553;51.640;-0.752;2023-05-10T10:49:50;2.27;;;1.00;;
38811;SDS011;24553;51.640;-0.752;2023-05-10T10:52:27;6.32;;;1.30;;
38811;SDS011;24553;51.640;-0.752;2023-05-10T10:57:26;3.63;;;1.27;;
38811;SDS011;24553;51.640;-0.752;2023-05-10T10:59:58;6.60;;;1.73;;
38811;SDS011;24553;51.640;-0.752;2023-05-10T11:07:56;4.65;;;1.90;;
38811;SDS011;24553;51.640;-0.752;2023-05-10T11:10:23;6.03;;;2.65;;
38811;SDS011;24553;51.640;-0.752;2023-05-10T11:13:05;9.23;;;1.67;;
38811;SDS011;24553;51.640;-0.752;2023-05-10T11:15:32;5.72;;;1.70;;
38811;SDS011;24553;51.640;-0.752;2023-05-10T11:20:51;5.70;;;2.08;;
38811;SDS011;24553;51.640;-0.752;2023-05-10T11:23:30;7.60;;;2.30;;
38811;SDS011;24553;51.640;-0.752;2023-05-10T11:25:57;4.45;;;1.73;;
38811;SDS011;24553;51.640;-0.752;2023-05-10T11:28:23;7.35;;;2.53;;
38811;SDS011;24553;51.640;-0.752;2023-05-10T11:30:49;4.80;;;1.33;;
38811;SDS011;24553;51.640;-0.752;2023-05-10T11:33:15;3.08;;;1.05;;
38811;SDS011;24553;51.640;-0.752;2023-05-10T11:35:42;4.20;;;1.40;;
38811;SDS011;24553;51.640;-0.752;2023-05-10T11:38:07;7.90;;;1.58;;
38811;SDS011;24553;51.640;-0.752;2023-05-10T11:40:33;6.60;;;1.13;;
38811;SDS011;24553;51.640;-0.752;2023-05-10T11:43:00;5.82;;;1.30;;
38811;SDS011;24553;51.640;-0.752;2023-05-10T11:45:25;6.80;;;1.30;;
38811;SDS011;24553;51.640;-0.752;2023-05-10T11:47:52;7.35;;;2.03;;
38811;SDS011;24553;51.640;-0.752;2023-05-10T11:50:17;3.28;;;1.80;;
38811;SDS011;24553;51.640;-0.752;2023-05-10T11:52:43;3.38;;;1.10;;
38811;SDS011;24553;51.640;-0.752;2023-05-10T11:55:08;4.82;;;1.35;;
38811;SDS011;24553;51.640;-0.752;2023-05-10T11:57:34;9.07;;;3.35;;
38811;SDS011;24553;51.640;-0.752;2023-05-10T12:00:03;6.63;;;1.55;;
38811;SDS011;24553;51.640;-0.752;2023-05-10T12:02:29;7.00;;;2.67;;
38811;SDS011;24553;51.640;-0.752;2023-05-10T12:04:55;3.47;;;1.45;;
38811;SDS011;24553;51.640;-0.752;2023-05-10T12:07:20;2.63;;;1.17;;
38811;SDS011;24553;51.640;-0.752;2023-05-10T12:10:02;6.57;;;2.00;;
38811;SDS011;24553;51.640;-0.752;2023-05-10T12:14:59;2.88;;;0.45;;
38811;SDS011;24553;51.640;-0.752;2023-05-10T12:17:27;2.08;;;0.90;;
38811;SDS011;24553;51.640;-0.752;2023-05-10T12:19:53;2.10;;;0.63;;
38811;SDS011;24553;51.640;-0.752;2023-05-10T12:22:20;2.55;;;0.57;;
38811;SDS011;24553;51.640;-0.752;2023-05-10T12:24:46;2.28;;;0.17;;
38811;SDS011;24553;51.640;-0.752;2023-05-10T12:27:11;1.80;;;0.25;;
38811;SDS011;24553;51.640;-0.752;2023-05-10T12:29:41;0.40;;;0.25;;
38811;SDS011;24553;51.640;-0.752;2023-05-10T12:32:08;0.77;;;0.25;;
38811;SDS011;24553;51.640;-0.752;2023-05-10T12:34:34;2.38;;;0.52;;
38811;SDS011;24553;51.640;-0.752;2023-05-10T12:37:01;2.42;;;0.88;;
38811;SDS011;24553;51.640;-0.752;2023-05-10T12:39:37;5.15;;;0.77;;
38811;SDS011;24553;51.640;-0.752;2023-05-10T12:42:07;0.30;;;0.30;;
38811;SDS011;24553;51.640;-0.752;2023-05-10T12:44:32;5.05;;;0.63;;
38811;SDS011;24553;51.640;-0.752;2023-05-10T12:46:57;2.47;;;0.52;;
38811;SDS011;24553;51.640;-0.752;2023-05-10T12:49:24;2.50;;;0.35;;
38811;SDS011;24553;51.640;-0.752;2023-05-10T12:51:49;2.72;;;0.47;;
38811;SDS011;24553;51.640;-0.752;2023-05-10T12:54:14;2.75;;;0.65;;
38811;SDS011;24553;51.640;-0.752;2023-05-10T12:56:40;3.63;;;0.30;;
38811;SDS011;24553;51.640;-0.752;2023-05-10T12:59:07;3.45;;;0.63;;
38811;SDS011;24553;51.640;-0.752;2023-05-10T13:01:32;0.30;;;0.17;;
38811;SDS011;24553;51.640;-0.752;2023-05-10T13:03:58;0.30;;;0.30;;
38811;SDS011;24553;51.640;-0.752;2023-05-10T13:06:25;2.38;;;0.50;;
38811;SDS011;24553;51.640;-0.752;2023-05-10T13:08:50;1.13;;;0.20;;
38811;SDS011;24553;51.640;-0.752;2023-05-10T13:11:16;0.68;;;0.32;;
38811;SDS011;24553;51.640;-0.752;2023-05-10T13:13:42;1.25;;;0.43;;
38811;SDS011;24553;51.640;-0.752;2023-05-10T13:16:07;1.70;;;0.68;;
38811;SDS011;24553;51.640;-0.752;2023-05-10T13:18:32;1.13;;;0.20;;
38811;SDS011;24553;51.640;-0.752;2023-05-10T13:20:58;2.53;;;0.20;;
38811;SDS011;24553;51.640;-0.752;2023-05-10T13:23:23;1.05;;;0.30;;
38811;SDS011;24553;51.640;-0.752;2023-05-10T13:25:48;0.55;;;0.22;;
38811;SDS011;24553;51.640;-0.752;2023-05-10T13:28:14;3.13;;;0.13;;
38811;SDS011;24553;51.640;-0.752;2023-05-10T13:30:40;0.10;;;0.00;;
38811;SDS011;24553;51.640;-0.752;2023-05-10T13:33:05;0.45;;;0.40;;
38811;SDS011;24553;51.640;-0.752;2023-05-10T13:35:31;4.32;;;0.70;;
38811;SDS011;24553;51.640;-0.752;2023-05-10T13:37:56;2.63;;;0.40;;
38811;SDS011;24553;51.640;-0.752;2023-05-10T13:40:22;2.45;;;0.40;;
38811;SDS011;24553;51.640;-0.752;2023-05-10T13:42:49;2.58;;;0.60;;
38811;SDS011;24553;51.640;-0.752;2023-05-10T13:45:14;0.77;;;0.20;;
38811;SDS011;24553;51.640;-0.752;2023-05-10T13:47:40;1.38;;;0.20;;
38811;SDS011;24553;51.640;-0.752;2023-05-10T13:50:06;0.63;;;0.20;;
38811;SDS011;24553;51.640;-0.752;2023-05-10T13:52:31;2.17;;;0.05;;
38811;SDS011;24553;51.640;-0.752;2023-05-10T13:54:57;0.93;;;0.28;;
38811;SDS011;24553;51.640;-0.752;2023-05-10T13:57:22;5.00;;;1.30;;
38811;SDS011;24553;51.640;-0.752;2023-05-10T13:59:48;3.15;;;0.30;;
38811;SDS011;24553;51.640;-0.752;2023-05-10T14:02:14;2.70;;;0.45;;
38811;SDS011;24553;51.640;-0.752;2023-05-10T14:04:40;1.30;;;0.80;;
38811;SDS011;24553;51.640;-0.752;2023-05-10T14:07:05;1.17;;;0.00;;
38811;SDS011;24553;51.640;-0.752;2023-05-10T14:09:30;2.42;;;0.00;;
38811;SDS011;24553;51.640;-0.752;2023-05-10T14:11:56;2.50;;;0.55;;
38811;SDS011;24553;51.640;-0.752;2023-05-10T14:14:22;1.23;;;0.10;;
38811;SDS011;24553;51.640;-0.752;2023-05-10T14:16:47;1.88;;;0.65;;
38811;SDS011;24553;51.640;-0.752;2023-05-10T14:19:12;0.45;;;0.00;;
38811;SDS011;24553;51.640;-0.752;2023-05-10T14:21:38;2.10;;;0.25;;
38811;SDS011;24553;51.640;-0.752;2023-05-10T14:24:03;3.70;;;0.73;;
38811;SDS011;24553;51.640;-0.752;2023-05-10T14:26:29;0.90;;;0.20;;
38811;SDS011;24553;51.640;-0.752;2023-05-10T14:28:54;2.28;;;0.57;;
38811;SDS011;24553;51.640;-0.752;2023-05-10T14:31:20;2.90;;;0.32;;
38811;SDS011;24553;51.640;-0.752;2023-05-10T14:33:46;1.67;;;0.40;;
38811;SDS011;24553;51.640;-0.752;2023-05-10T14:36:12;1.70;;;0.30;;
38811;SDS011;24553;51.640;-0.752;2023-05-10T14:38:37;4.80;;;1.45;;
38811;SDS011;24553;51.640;-0.752;2023-05-10T14:41:02;1.30;;;0.85;;
38811;SDS011;24553;51.640;-0.752;2023-05-10T14:43:28;3.38;;;0.80;;
38811;SDS011;24553;51.640;-0.752;2023-05-10T14:45:53;3.38;;;0.63;;
38811;SDS011;24553;51.640;-0.752;2023-05-10T14:48:19;3.97;;;1.30;;
38811;SDS011;24553;51.640;-0.752;2023-05-10T14:50:44;3.55;;;0.30;;
38811;SDS011;24553;51.640;-0.752;2023-05-10T14:53:11;2.03;;;0.25;;
38811;SDS011;24553;51.640;-0.752;2023-05-10T14:55:36;5.88;;;1.65;;
38811;SDS011;24553;51.640;-0.752;2023-05-10T14:58:02;1.45;;;0.43;;
38811;SDS011;24553;51.640;-0.752;2023-05-10T15:00:28;1.30;;;0.20;;
38811;SDS011;24553;51.640;-0.752;2023-05-10T15:02:54;2.38;;;0.40;;
38811;SDS011;24553;51.640;-0.752;2023-05-10T15:05:19;6.15;;;0.90;;
38811;SDS011;24553;51.640;-0.752;2023-05-10T15:07:45;3.50;;;0.32;;
38811;SDS011;24553;51.640;-0.752;2023-05-10T15:10:10;2.72;;;0.63;;
38811;SDS011;24553;51.640;-0.752;2023-05-10T15:12:36;4.07;;;0.82;;